sensor_id;sensor_type;location;lat;lon;timestamp;pressure;altitude;pressure_sealevel;temperature;humidity
21236;BME280;10775;42.678;26.324;2023-02-15T00:01:54;99873.81;;;5.11;76.96
21236;BME280;10775;42.678;26.324;2023-02-15T00:04:22;99863.22;;;5.00;74.57
21236;BME280;10775;42.678;26.324;2023-02-15T00:06:48;99867.28;;;4.88;78.71
21236;BME280;10775;42.678;26.324;2023-02-15T00:09:14;99870.19;;;5.03;79.50
21236;BME280;10775;42.678;26.324;2023-02-15T00:11:40;99859.59;;;4.92;75.08
21236;BME280;10775;42.678;26.324;2023-02-15T00:16:31;99868.28;;;4.94;77.94
21236;BME280;10775;42.678;26.324;2023-02-15T00:18:56;99857.78;;;4.88;79.14
21236;BME280;10775;42.678;26.324;2023-02-15T00:21:22;99857.81;;;4.90;77.29
21236;BME280;10775;42.678;26.324;2023-02-15T00:23:47;99858.97;;;4.63;77.17
21236;BME280;10775;42.678;26.324;2023-02-15T00:26:13;99858.53;;;4.83;77.33
21236;BME280;10775;42.678;26.324;2023-02-15T00:28:38;99862.38;;;4.62;76.21
21236;BME280;10775;42.678;26.324;2023-02-15T00:31:05;99879.59;;;4.58;77.82
21236;BME280;10775;42.678;26.324;2023-02-15T00:33:31;99873.88;;;4.37;77.30
21236;BME280;10775;42.678;26.324;2023-02-15T00:35:57;99869.81;;;4.47;80.59
21236;BME280;10775;42.678;26.324;2023-02-15T00:38:23;99869.16;;;4.55;79.29
21236;BME280;10775;42.678;26.324;2023-02-15T00:40:59;99864.84;;;4.56;79.27
21236;BME280;10775;42.678;26.324;2023-02-15T00:43:29;99863.03;;;4.52;79.27
21236;BME280;10775;42.678;26.324;2023-02-15T00:45:54;99865.63;;;4.52;80.34
21236;BME280;10775;42.678;26.324;2023-02-15T00:48:20;99868.88;;;4.45;77.96
21236;BME280;10775;42.678;26.324;2023-02-15T00:50:51;99866.13;;;4.37;77.79
21236;BME280;10775;42.678;26.324;2023-02-15T00:53:17;99861.56;;;4.63;83.42
21236;BME280;10775;42.678;26.324;2023-02-15T00:55:42;99875.00;;;4.85;80.56
21236;BME280;10775;42.678;26.324;2023-02-15T00:58:09;99858.81;;;4.57;78.48
21236;BME280;10775;42.678;26.324;2023-02-15T01:00:35;99865.69;;;4.55;81.57
21236;BME280;10775;42.678;26.324;2023-02-15T01:03:00;99864.56;;;4.44;77.42
21236;BME280;10775;42.678;26.324;2023-02-15T01:05:26;99869.81;;;4.47;81.61
21236;BME280;10775;42.678;26.324;2023-02-15T01:07:51;99861.38;;;4.19;76.61
21236;BME280;10775;42.678;26.324;2023-02-15T01:10:17;99862.56;;;4.32;82.25
21236;BME280;10775;42.678;26.324;2023-02-15T01:12:42;99869.31;;;4.25;76.99
21236;BME280;10775;42.678;26.324;2023-02-15T01:15:09;99862.09;;;4.50;81.06
21236;BME280;10775;42.678;26.324;2023-02-15T01:17:34;99858.25;;;4.70;82.01
21236;BME280;10775;42.678;26.324;2023-02-15T01:20:00;99873.25;;;4.46;78.47
21236;BME280;10775;42.678;26.324;2023-02-15T01:22:25;99857.97;;;4.22;79.58
21236;BME280;10775;42.678;26.324;2023-02-15T01:24:51;99859.31;;;4.41;80.51
21236;BME280;10775;42.678;26.324;2023-02-15T01:27:16;99860.94;;;4.35;78.50
21236;BME280;10775;42.678;26.324;2023-02-15T01:29:42;99860.06;;;4.36;81.14
21236;BME280;10775;42.678;26.324;2023-02-15T01:32:07;99868.06;;;4.46;79.83
21236;BME280;10775;42.678;26.324;2023-02-15T01:34:33;99865.50;;;4.11;76.86
21236;BME280;10775;42.678;26.324;2023-02-15T01:36:58;99859.41;;;4.09;79.54
21236;BME280;10775;42.678;26.324;2023-02-15T01:39:24;99866.97;;;4.00;77.29
21236;BME280;10775;42.678;26.324;2023-02-15T01:41:49;99861.72;;;3.97;78.18
21236;BME280;10775;42.678;26.324;2023-02-15T01:44:48;99863.50;;;4.01;81.84
21236;BME280;10775;42.678;26.324;2023-02-15T01:52:37;99872.16;;;4.36;85.02
21236;BME280;10775;42.678;26.324;2023-02-15T01:55:04;99865.38;;;4.06;79.05
21236;BME280;10775;42.678;26.324;2023-02-15T01:57:32;99867.91;;;4.03;84.02
21236;BME280;10775;42.678;26.324;2023-02-15T01:59:59;99870.13;;;4.24;83.72
21236;BME280;10775;42.678;26.324;2023-02-15T02:02:28;99869.06;;;4.16;83.94
21236;BME280;10775;42.678;26.324;2023-02-15T02:05:00;99872.69;;;4.23;81.99
21236;BME280;10775;42.678;26.324;2023-02-15T02:07:31;99867.50;;;3.88;78.83
21236;BME280;10775;42.678;26.324;2023-02-15T02:09:57;99866.50;;;3.83;79.32
21236;BME280;10775;42.678;26.324;2023-02-15T02:12:24;99867.97;;;3.73;79.04
21236;BME280;10775;42.678;26.324;2023-02-15T02:14:51;99871.88;;;3.90;82.74
21236;BME280;10775;42.678;26.324;2023-02-15T02:17:54;99865.69;;;3.84;81.33
21236;BME280;10775;42.678;26.324;2023-02-15T02:23:38;99878.31;;;4.05;80.73
21236;BME280;10775;42.678;26.324;2023-02-15T02:34:58;99876.03;;;4.17;83.58
21236;BME280;10775;42.678;26.324;2023-02-15T02:43:24;99879.44;;;4.16;83.69
21236;BME280;10775;42.678;26.324;2023-02-15T02:46:00;99887.34;;;3.87;79.36
21236;BME280;10775;42.678;26.324;2023-02-15T02:48:30;99891.59;;;3.85;79.15
21236;BME280;10775;42.678;26.324;2023-02-15T02:50:57;99900.72;;;3.71;79.48
21236;BME280;10775;42.678;26.324;2023-02-15T02:53:22;99900.88;;;3.77;79.64
21236;BME280;10775;42.678;26.324;2023-02-15T02:55:55;99902.44;;;3.72;79.13
21236;BME280;10775;42.678;26.324;2023-02-15T03:01:03;99901.72;;;3.78;79.43
21236;BME280;10775;42.678;26.324;2023-02-15T03:03:37;99901.81;;;3.81;83.08
21236;BME280;10775;42.678;26.324;2023-02-15T03:06:13;99912.53;;;3.95;82.44
21236;BME280;10775;42.678;26.324;2023-02-15T03:08:47;99915.53;;;4.10;85.38
21236;BME280;10775;42.678;26.324;2023-02-15T03:11:14;99913.28;;;4.24;82.26
21236;BME280;10775;42.678;26.324;2023-02-15T03:13:40;99922.16;;;4.33;80.66
21236;BME280;10775;42.678;26.324;2023-02-15T03:16:07;99918.78;;;4.03;81.54
21236;BME280;10775;42.678;26.324;2023-02-15T03:19:17;99923.22;;;4.07;84.42
21236;BME280;10775;42.678;26.324;2023-02-15T03:21:49;99926.28;;;4.25;84.89
21236;BME280;10775;42.678;26.324;2023-02-15T03:24:26;99929.66;;;3.89;79.62
21236;BME280;10775;42.678;26.324;2023-02-15T03:26:54;99927.69;;;3.81;79.19
21236;BME280;10775;42.678;26.324;2023-02-15T03:29:26;99929.53;;;4.18;84.96
21236;BME280;10775;42.678;26.324;2023-02-15T03:32:01;99935.22;;;4.38;82.20
21236;BME280;10775;42.678;26.324;2023-02-15T03:34:28;99931.66;;;4.00;78.57
21236;BME280;10775;42.678;26.324;2023-02-15T03:39:40;99939.75;;;4.12;83.24
21236;BME280;10775;42.678;26.324;2023-02-15T03:42:09;99955.47;;;4.20;81.30
21236;BME280;10775;42.678;26.324;2023-02-15T03:44:55;99950.38;;;3.91;78.60
21236;BME280;10775;42.678;26.324;2023-02-15T03:47:26;99946.78;;;3.84;80.04
21236;BME280;10775;42.678;26.324;2023-02-15T03:49:58;99952.88;;;3.86;80.82
21236;BME280;10775;42.678;26.324;2023-02-15T03:52:26;99957.69;;;4.06;83.26
21236;BME280;10775;42.678;26.324;2023-02-15T03:54:53;99961.88;;;4.01;79.81
21236;BME280;10775;42.678;26.324;2023-02-15T03:57:25;99954.16;;;4.04;79.83
21236;BME280;10775;42.678;26.324;2023-02-15T04:00:19;99958.47;;;4.03;80.82
21236;BME280;10775;42.678;26.324;2023-02-15T04:05:35;99950.78;;;4.06;83.49
21236;BME280;10775;42.678;26.324;2023-02-15T04:08:01;99957.69;;;4.06;81.28
21236;BME280;10775;42.678;26.324;2023-02-15T04:10:27;99965.03;;;4.22;82.76
21236;BME280;10775;42.678;26.324;2023-02-15T04:13:11;99962.13;;;4.11;81.81
21236;BME280;10775;42.678;26.324;2023-02-15T04:15:36;99955.88;;;4.35;83.15
21236;BME280;10775;42.678;26.324;2023-02-15T04:18:20;99960.53;;;4.50;82.29
21236;BME280;10775;42.678;26.324;2023-02-15T04:20:46;99973.69;;;4.24;79.08
21236;BME280;10775;42.678;26.324;2023-02-15T04:23:31;99981.03;;;4.07;79.38
21236;BME280;10775;42.678;26.324;2023-02-15T04:26:15;99976.38;;;3.94;80.31
21236;BME280;10775;42.678;26.324;2023-02-15T04:28:41;99981.00;;;3.74;79.38
21236;BME280;10775;42.678;26.324;2023-02-15T04:31:06;99977.53;;;3.74;80.52
21236;BME280;10775;42.678;26.324;2023-02-15T04:33:32;99984.94;;;3.91;83.30
21236;BME280;10775;42.678;26.324;2023-02-15T04:35:57;99990.31;;;3.99;81.24
21236;BME280;10775;42.678;26.324;2023-02-15T04:38:23;99990.41;;;3.72;79.81
21236;BME280;10775;42.678;26.324;2023-02-15T04:40:52;99995.66;;;3.75;82.39
21236;BME280;10775;42.678;26.324;2023-02-15T04:43:18;99999.47;;;3.88;82.21
21236;BME280;10775;42.678;26.324;2023-02-15T04:45:48;100000.94;;;4.10;82.21
21236;BME280;10775;42.678;26.324;2023-02-15T04:48:15;99996.00;;;4.19;84.81
21236;BME280;10775;42.678;26.324;2023-02-15T04:50:41;99991.91;;;4.27;83.99
21236;BME280;10775;42.678;26.324;2023-02-15T04:53:06;100000.75;;;4.35;82.32
21236;BME280;10775;42.678;26.324;2023-02-15T04:55:31;100003.56;;;4.45;83.69
21236;BME280;10775;42.678;26.324;2023-02-15T04:57:57;100006.19;;;4.13;80.44
21236;BME280;10775;42.678;26.324;2023-02-15T05:00:22;100015.03;;;4.21;83.38
21236;BME280;10775;42.678;26.324;2023-02-15T05:02:48;100014.81;;;4.12;81.02
21236;BME280;10775;42.678;26.324;2023-02-15T05:05:13;100018.16;;;4.08;81.97
21236;BME280;10775;42.678;26.324;2023-02-15T05:07:40;100020.94;;;4.16;82.68
21236;BME280;10775;42.678;26.324;2023-02-15T05:10:06;100020.16;;;4.18;83.66
21236;BME280;10775;42.678;26.324;2023-02-15T05:12:32;100021.69;;;4.11;83.53
21236;BME280;10775;42.678;26.324;2023-02-15T05:14:57;100027.50;;;4.03;83.97
21236;BME280;10775;42.678;26.324;2023-02-15T05:17:22;100026.19;;;4.19;84.82
21236;BME280;10775;42.678;26.324;2023-02-15T05:19:48;100031.72;;;3.99;80.43
21236;BME280;10775;42.678;26.324;2023-02-15T05:22:13;100030.13;;;4.04;83.14
21236;BME280;10775;42.678;26.324;2023-02-15T05:24:39;100034.75;;;4.16;82.63
21236;BME280;10775;42.678;26.324;2023-02-15T05:27:23;100046.03;;;4.18;83.72
21236;BME280;10775;42.678;26.324;2023-02-15T05:30:07;100043.78;;;4.30;84.00
21236;BME280;10775;42.678;26.324;2023-02-15T05:32:37;100043.72;;;4.27;83.42
21236;BME280;10775;42.678;26.324;2023-02-15T05:35:04;100052.56;;;4.37;81.39
21236;BME280;10775;42.678;26.324;2023-02-15T05:37:30;100052.06;;;4.17;82.95
21236;BME280;10775;42.678;26.324;2023-02-15T05:39:55;100056.88;;;4.05;79.44
21236;BME280;10775;42.678;26.324;2023-02-15T05:42:21;100051.22;;;4.18;83.50
21236;BME280;10775;42.678;26.324;2023-02-15T05:44:46;100052.63;;;4.39;82.95
21236;BME280;10775;42.678;26.324;2023-02-15T05:47:11;100054.28;;;4.36;82.71
21236;BME280;10775;42.678;26.324;2023-02-15T05:49:37;100055.16;;;4.37;82.90
21236;BME280;10775;42.678;26.324;2023-02-15T05:52:03;100054.50;;;4.44;82.61
21236;BME280;10775;42.678;26.324;2023-02-15T05:54:29;100053.50;;;4.39;82.26
21236;BME280;10775;42.678;26.324;2023-02-15T05:56:54;100055.56;;;4.51;81.82
21236;BME280;10775;42.678;26.324;2023-02-15T05:59:20;100060.53;;;4.43;80.86
21236;BME280;10775;42.678;26.324;2023-02-15T06:01:45;100062.91;;;4.35;82.28
21236;BME280;10775;42.678;26.324;2023-02-15T06:04:10;100068.16;;;4.39;81.19
21236;BME280;10775;42.678;26.324;2023-02-15T06:06:36;100065.91;;;4.19;81.66
21236;BME280;10775;42.678;26.324;2023-02-15T06:09:02;100070.63;;;4.02;79.50
21236;BME280;10775;42.678;26.324;2023-02-15T06:11:27;100064.09;;;4.17;81.91
21236;BME280;10775;42.678;26.324;2023-02-15T06:13:53;100071.41;;;4.31;81.29
21236;BME280;10775;42.678;26.324;2023-02-15T06:16:18;100072.97;;;4.56;81.44
21236;BME280;10775;42.678;26.324;2023-02-15T06:18:43;100073.94;;;4.62;83.13
21236;BME280;10775;42.678;26.324;2023-02-15T06:21:09;100080.34;;;4.74;82.66
21236;BME280;10775;42.678;26.324;2023-02-15T06:23:34;100079.06;;;4.92;83.21
21236;BME280;10775;42.678;26.324;2023-02-15T06:26:00;100090.41;;;4.97;82.71
21236;BME280;10775;42.678;26.324;2023-02-15T06:28:25;100087.94;;;5.01;82.39
21236;BME280;10775;42.678;26.324;2023-02-15T06:30:51;100099.13;;;5.00;82.62
21236;BME280;10775;42.678;26.324;2023-02-15T06:33:17;100085.72;;;5.17;83.08
21236;BME280;10775;42.678;26.324;2023-02-15T06:35:43;100098.78;;;5.21;82.30
21236;BME280;10775;42.678;26.324;2023-02-15T06:38:09;100090.34;;;5.30;83.19
21236;BME280;10775;42.678;26.324;2023-02-15T06:40:35;100089.69;;;5.39;84.17
21236;BME280;10775;42.678;26.324;2023-02-15T06:43:00;100087.19;;;5.43;85.42
21236;BME280;10775;42.678;26.324;2023-02-15T06:45:26;100086.88;;;5.68;86.79
21236;BME280;10775;42.678;26.324;2023-02-15T06:47:51;100082.50;;;6.04;89.23
21236;BME280;10775;42.678;26.324;2023-02-15T06:50:16;100086.63;;;6.39;83.46
21236;BME280;10775;42.678;26.324;2023-02-15T06:52:42;100086.56;;;6.34;87.45
21236;BME280;10775;42.678;26.324;2023-02-15T06:55:07;100088.00;;;5.79;75.22
21236;BME280;10775;42.678;26.324;2023-02-15T06:57:33;100087.19;;;6.22;88.57
21236;BME280;10775;42.678;26.324;2023-02-15T06:59:59;100089.25;;;6.87;88.36
21236;BME280;10775;42.678;26.324;2023-02-15T07:02:24;100092.16;;;7.04;84.70
21236;BME280;10775;42.678;26.324;2023-02-15T07:04:50;100089.69;;;7.12;79.54
21236;BME280;10775;42.678;26.324;2023-02-15T07:07:15;100091.88;;;6.89;87.34
21236;BME280;10775;42.678;26.324;2023-02-15T07:09:41;100103.19;;;6.44;71.84
21236;BME280;10775;42.678;26.324;2023-02-15T07:12:06;100108.09;;;6.74;77.06
21236;BME280;10775;42.678;26.324;2023-02-15T07:15:12;100098.72;;;6.84;87.57
21236;BME280;10775;42.678;26.324;2023-02-15T07:17:38;100098.03;;;6.94;81.53
21236;BME280;10775;42.678;26.324;2023-02-15T07:20:09;100093.03;;;7.05;79.05
21236;BME280;10775;42.678;26.324;2023-02-15T07:22:35;100095.13;;;7.27;86.42
21236;BME280;10775;42.678;26.324;2023-02-15T07:25:03;100093.06;;;7.08;87.69
21236;BME280;10775;42.678;26.324;2023-02-15T07:27:29;100089.34;;;6.90;85.03
21236;BME280;10775;42.678;26.324;2023-02-15T07:29:55;100091.63;;;6.73;82.44
21236;BME280;10775;42.678;26.324;2023-02-15T07:32:20;100093.22;;;6.65;86.33
21236;BME280;10775;42.678;26.324;2023-02-15T07:34:46;100093.19;;;7.14;88.87
21236;BME280;10775;42.678;26.324;2023-02-15T07:37:11;100091.09;;;7.48;90.32
21236;BME280;10775;42.678;26.324;2023-02-15T07:39:37;100078.69;;;7.92;87.21
21236;BME280;10775;42.678;26.324;2023-02-15T07:42:02;100076.22;;;8.01;82.71
21236;BME280;10775;42.678;26.324;2023-02-15T07:44:28;100068.91;;;7.74;83.61
21236;BME280;10775;42.678;26.324;2023-02-15T07:46:53;100078.03;;;8.09;88.88
21236;BME280;10775;42.678;26.324;2023-02-15T07:49:19;100071.19;;;8.17;84.59
21236;BME280;10775;42.678;26.324;2023-02-15T07:51:44;100072.03;;;8.14;84.29
21236;BME280;10775;42.678;26.324;2023-02-15T07:54:10;100070.50;;;7.63;71.46
21236;BME280;10775;42.678;26.324;2023-02-15T07:56:36;100076.31;;;8.09;84.02
21236;BME280;10775;42.678;26.324;2023-02-15T07:59:01;100078.31;;;8.33;81.79
21236;BME280;10775;42.678;26.324;2023-02-15T08:01:33;100076.50;;;9.08;83.11
21236;BME280;10775;42.678;26.324;2023-02-15T08:04:00;100070.94;;;9.94;79.68
21236;BME280;10775;42.678;26.324;2023-02-15T08:06:30;100075.31;;;10.04;75.78
21236;BME280;10775;42.678;26.324;2023-02-15T08:08:56;100081.97;;;9.48;83.95
21236;BME280;10775;42.678;26.324;2023-02-15T08:11:26;100079.94;;;9.06;86.13
21236;BME280;10775;42.678;26.324;2023-02-15T08:16:37;100076.06;;;9.78;73.84
21236;BME280;10775;42.678;26.324;2023-02-15T08:19:29;100072.44;;;9.49;77.15
21236;BME280;10775;42.678;26.324;2023-02-15T08:22:00;100073.69;;;8.88;87.18
21236;BME280;10775;42.678;26.324;2023-02-15T08:24:36;100077.84;;;8.68;76.74
21236;BME280;10775;42.678;26.324;2023-02-15T08:27:03;100071.22;;;8.20;71.51
21236;BME280;10775;42.678;26.324;2023-02-15T08:29:29;100070.69;;;8.47;78.12
21236;BME280;10775;42.678;26.324;2023-02-15T08:32:01;100075.41;;;8.07;69.40
21236;BME280;10775;42.678;26.324;2023-02-15T08:34:29;100074.22;;;8.52;93.77
21236;BME280;10775;42.678;26.324;2023-02-15T08:36:55;100079.38;;;8.47;84.51
21236;BME280;10775;42.678;26.324;2023-02-15T08:39:21;100079.47;;;7.83;74.94
21236;BME280;10775;42.678;26.324;2023-02-15T08:41:47;100083.06;;;7.93;88.96
21236;BME280;10775;42.678;26.324;2023-02-15T08:44:14;100080.53;;;7.98;93.64
21236;BME280;10775;42.678;26.324;2023-02-15T08:46:42;100091.81;;;6.39;66.67
21236;BME280;10775;42.678;26.324;2023-02-15T08:49:09;100079.94;;;7.55;95.47
21236;BME280;10775;42.678;26.324;2023-02-15T08:51:37;100086.16;;;7.66;63.62
21236;BME280;10775;42.678;26.324;2023-02-15T08:54:05;100085.31;;;6.61;64.17
21236;BME280;10775;42.678;26.324;2023-02-15T08:56:36;100090.03;;;6.35;64.95
21236;BME280;10775;42.678;26.324;2023-02-15T08:59:03;100080.63;;;6.41;64.52
21236;BME280;10775;42.678;26.324;2023-02-15T09:01:31;100081.13;;;6.67;66.98
21236;BME280;10775;42.678;26.324;2023-02-15T09:03:59;100070.38;;;6.49;64.82
21236;BME280;10775;42.678;26.324;2023-02-15T09:06:26;100065.63;;;7.28;65.95
21236;BME280;10775;42.678;26.324;2023-02-15T09:08:52;100073.94;;;7.04;62.26
21236;BME280;10775;42.678;26.324;2023-02-15T09:11:19;100071.28;;;7.59;79.74
21236;BME280;10775;42.678;26.324;2023-02-15T09:14:18;100068.72;;;8.31;90.22
21236;BME280;10775;42.678;26.324;2023-02-15T09:16:46;100072.19;;;8.26;86.88
21236;BME280;10775;42.678;26.324;2023-02-15T09:19:15;100073.44;;;8.59;77.24
21236;BME280;10775;42.678;26.324;2023-02-15T09:21:41;100068.28;;;8.67;82.91
21236;BME280;10775;42.678;26.324;2023-02-15T09:24:12;100069.34;;;8.86;86.23
21236;BME280;10775;42.678;26.324;2023-02-15T09:26:40;100065.41;;;8.41;74.70
21236;BME280;10775;42.678;26.324;2023-02-15T09:29:07;100063.59;;;8.37;75.24
21236;BME280;10775;42.678;26.324;2023-02-15T09:31:37;100062.28;;;8.76;60.87
21236;BME280;10775;42.678;26.324;2023-02-15T09:34:03;100068.75;;;9.21;73.95
21236;BME280;10775;42.678;26.324;2023-02-15T09:36:34;100063.34;;;8.98;72.36
21236;BME280;10775;42.678;26.324;2023-02-15T09:39:09;100061.06;;;9.42;75.41
21236;BME280;10775;42.678;26.324;2023-02-15T09:44:33;100049.03;;;9.69;73.20
21236;BME280;10775;42.678;26.324;2023-02-15T09:53:12;100047.34;;;8.58;69.58
21236;BME280;10775;42.678;26.324;2023-02-15T10:15:38;100014.06;;;9.39;71.92
21236;BME280;10775;42.678;26.324;2023-02-15T10:28:51;99995.31;;;10.38;57.82
21236;BME280;10775;42.678;26.324;2023-02-15T10:31:27;99982.91;;;9.76;61.45
21236;BME280;10775;42.678;26.324;2023-02-15T10:42:11;99987.31;;;9.89;61.75
21236;BME280;10775;42.678;26.324;2023-02-15T10:50:17;99972.50;;;9.91;62.31
21236;BME280;10775;42.678;26.324;2023-02-15T11:06:21;99979.47;;;9.83;67.57
21236;BME280;10775;42.678;26.324;2023-02-15T11:08:57;99969.84;;;9.76;62.81
21236;BME280;10775;42.678;26.324;2023-02-15T11:11:29;99969.16;;;10.37;66.56
21236;BME280;10775;42.678;26.324;2023-02-15T11:14:02;99967.47;;;10.74;65.81
21236;BME280;10775;42.678;26.324;2023-02-15T11:16:39;99960.47;;;10.82;60.09
21236;BME280;10775;42.678;26.324;2023-02-15T11:19:30;99967.44;;;10.96;62.65
21236;BME280;10775;42.678;26.324;2023-02-15T11:22:05;99961.28;;;11.30;63.24
21236;BME280;10775;42.678;26.324;2023-02-15T11:24:41;99961.31;;;11.20;56.75
21236;BME280;10775;42.678;26.324;2023-02-15T11:29:50;99946.50;;;11.05;59.66
21236;BME280;10775;42.678;26.324;2023-02-15T11:37:53;99963.06;;;10.39;53.07
21236;BME280;10775;42.678;26.324;2023-02-15T11:40:47;99949.13;;;10.77;65.53
21236;BME280;10775;42.678;26.324;2023-02-15T11:43:23;99947.31;;;11.19;67.00
21236;BME280;10775;42.678;26.324;2023-02-15T11:45:50;99929.88;;;11.27;64.61
21236;BME280;10775;42.678;26.324;2023-02-15T11:48:15;99924.66;;;11.06;59.65
21236;BME280;10775;42.678;26.324;2023-02-15T11:50:43;99929.88;;;11.17;65.05
21236;BME280;10775;42.678;26.324;2023-02-15T11:53:13;99926.41;;;11.08;60.02
21236;BME280;10775;42.678;26.324;2023-02-15T11:55:42;99934.31;;;10.82;61.71
21236;BME280;10775;42.678;26.324;2023-02-15T12:00:48;99936.94;;;10.79;66.60
21236;BME280;10775;42.678;26.324;2023-02-15T12:03:22;99926.31;;;11.39;66.66
21236;BME280;10775;42.678;26.324;2023-02-15T12:05:57;99917.59;;;11.43;69.05
21236;BME280;10775;42.678;26.324;2023-02-15T12:08:42;99925.50;;;11.25;66.95
21236;BME280;10775;42.678;26.324;2023-02-15T12:11:12;99926.41;;;11.13;61.48
21236;BME280;10775;42.678;26.324;2023-02-15T12:14:04;99913.38;;;10.90;63.47
21236;BME280;10775;42.678;26.324;2023-02-15T12:16:55;99921.22;;;10.65;62.33
21236;BME280;10775;42.678;26.324;2023-02-15T12:19:31;99912.50;;;10.94;66.42
21236;BME280;10775;42.678;26.324;2023-02-15T12:21:59;99902.78;;;11.36;67.19
21236;BME280;10775;42.678;26.324;2023-02-15T12:24:29;99911.63;;;10.89;60.25
21236;BME280;10775;42.678;26.324;2023-02-15T12:27:13;99909.84;;;11.05;59.81
21236;BME280;10775;42.678;26.324;2023-02-15T12:29:42;99905.44;;;11.24;65.13
21236;BME280;10775;42.678;26.324;2023-02-15T12:32:16;99904.53;;;11.29;63.46
21236;BME280;10775;42.678;26.324;2023-02-15T12:34:43;99902.00;;;11.08;68.44
21236;BME280;10775;42.678;26.324;2023-02-15T12:37:23;99904.53;;;11.32;65.80
21236;BME280;10775;42.678;26.324;2023-02-15T12:39:56;99911.50;;;11.43;65.55
21236;BME280;10775;42.678;26.324;2023-02-15T12:42:23;99904.47;;;11.48;66.99
21236;BME280;10775;42.678;26.324;2023-02-15T12:50:38;99892.38;;;11.22;66.42
21236;BME280;10775;42.678;26.324;2023-02-15T12:53:15;99895.97;;;10.38;59.06
21236;BME280;10775;42.678;26.324;2023-02-15T12:56:02;99908.19;;;10.61;56.78
21236;BME280;10775;42.678;26.324;2023-02-15T12:58:36;99902.09;;;10.56;53.98
21236;BME280;10775;42.678;26.324;2023-02-15T13:03:35;99908.13;;;10.98;67.42
21236;BME280;10775;42.678;26.324;2023-02-15T13:06:02;99896.81;;;10.65;57.08
21236;BME280;10775;42.678;26.324;2023-02-15T13:08:35;99907.31;;;10.51;52.26
21236;BME280;10775;42.678;26.324;2023-02-15T13:11:07;99906.41;;;10.23;64.00
21236;BME280;10775;42.678;26.324;2023-02-15T13:13:54;99907.25;;;10.11;63.64
21236;BME280;10775;42.678;26.324;2023-02-15T13:16:33;99888.09;;;10.77;66.04
21236;BME280;10775;42.678;26.324;2023-02-15T13:19:04;99895.91;;;10.12;54.65
21236;BME280;10775;42.678;26.324;2023-02-15T13:21:35;99900.31;;;10.32;64.04
21236;BME280;10775;42.678;26.324;2023-02-15T13:24:22;99898.59;;;10.61;65.90
21236;BME280;10775;42.678;26.324;2023-02-15T13:26:48;99891.59;;;10.57;58.03
21236;BME280;10775;42.678;26.324;2023-02-15T13:29:18;99893.31;;;10.20;51.75
21236;BME280;10775;42.678;26.324;2023-02-15T13:31:46;99893.25;;;9.82;52.45
21236;BME280;10775;42.678;26.324;2023-02-15T13:34:34;99900.22;;;9.89;55.80
21236;BME280;10775;42.678;26.324;2023-02-15T13:39:51;99892.50;;;10.52;55.79
21236;BME280;10775;42.678;26.324;2023-02-15T13:50:13;99891.56;;;10.91;64.49
21236;BME280;10775;42.678;26.324;2023-02-15T13:55:37;99887.19;;;10.88;72.44
21236;BME280;10775;42.678;26.324;2023-02-15T13:58:21;99884.50;;;11.21;74.41
21236;BME280;10775;42.678;26.324;2023-02-15T14:26:08;99887.25;;;10.32;59.23
21236;BME280;10775;42.678;26.324;2023-02-15T14:31:42;99894.16;;;9.90;56.11
21236;BME280;10775;42.678;26.324;2023-02-15T14:34:30;99888.75;;;9.41;53.99
21236;BME280;10775;42.678;26.324;2023-02-15T14:37:03;99893.91;;;9.21;54.78
21236;BME280;10775;42.678;26.324;2023-02-15T14:45:15;99885.22;;;9.22;58.90
21236;BME280;10775;42.678;26.324;2023-02-15T14:47:44;99899.28;;;9.54;65.23
21236;BME280;10775;42.678;26.324;2023-02-15T14:58:55;99902.63;;;9.30;59.20
21236;BME280;10775;42.678;26.324;2023-02-15T15:01:26;99894.56;;;8.80;55.18
21236;BME280;10775;42.678;26.324;2023-02-15T15:03:54;99895.56;;;9.05;77.96
21236;BME280;10775;42.678;26.324;2023-02-15T15:06:32;99893.19;;;9.63;77.62
21236;BME280;10775;42.678;26.324;2023-02-15T15:09:22;99897.28;;;9.01;58.27
21236;BME280;10775;42.678;26.324;2023-02-15T15:11:55;99893.84;;;9.08;72.85
21236;BME280;10775;42.678;26.324;2023-02-15T15:14:39;99901.84;;;9.42;76.06
21236;BME280;10775;42.678;26.324;2023-02-15T15:17:06;99897.31;;;9.07;63.64
21236;BME280;10775;42.678;26.324;2023-02-15T15:22:27;99904.47;;;9.48;86.37
21236;BME280;10775;42.678;26.324;2023-02-15T15:25:08;99914.06;;;9.49;77.64
21236;BME280;10775;42.678;26.324;2023-02-15T15:49:10;99923.94;;;8.54;74.43
21236;BME280;10775;42.678;26.324;2023-02-15T15:51:40;99920.25;;;8.38;73.79
21236;BME280;10775;42.678;26.324;2023-02-15T15:54:14;99921.09;;;8.33;81.56
21236;BME280;10775;42.678;26.324;2023-02-15T15:56:43;99924.91;;;8.71;95.85
21236;BME280;10775;42.678;26.324;2023-02-15T15:59:15;99921.28;;;8.51;81.81
21236;BME280;10775;42.678;26.324;2023-02-15T16:01:44;99920.28;;;8.37;85.85
21236;BME280;10775;42.678;26.324;2023-02-15T16:04:22;99914.41;;;8.59;91.04
21236;BME280;10775;42.678;26.324;2023-02-15T16:06:48;99924.59;;;8.38;71.83
21236;BME280;10775;42.678;26.324;2023-02-15T16:09:18;99933.28;;;8.37;92.95
21236;BME280;10775;42.678;26.324;2023-02-15T16:11:47;99942.09;;;8.48;92.33
21236;BME280;10775;42.678;26.324;2023-02-15T16:17:00;99939.41;;;8.39;91.60
21236;BME280;10775;42.678;26.324;2023-02-15T16:19:38;99936.34;;;7.93;70.41
21236;BME280;10775;42.678;26.324;2023-02-15T16:22:10;99946.63;;;7.80;83.80
21236;BME280;10775;42.678;26.324;2023-02-15T16:27:35;99941.97;;;8.36;93.08
21236;BME280;10775;42.678;26.324;2023-02-15T16:32:42;99945.63;;;8.56;83.47
21236;BME280;10775;42.678;26.324;2023-02-15T16:35:17;99944.66;;;8.42;83.13
21236;BME280;10775;42.678;26.324;2023-02-15T16:37:43;99943.44;;;8.09;80.25
21236;BME280;10775;42.678;26.324;2023-02-15T16:40:27;99953.22;;;8.33;89.16
21236;BME280;10775;42.678;26.324;2023-02-15T16:43:00;99954.06;;;8.29;88.46